Time;durP1;ratioP1;P1;durP2;ratioP2;P2;SDS_P1;SDS_P2;PMS_P1;PMS_P2;Temp;Humidity;BMP_temperature;BMP_pressure;BME280_temperature;BME280_humidity;BME280_pressure;Samples;Min_cycle;Max_cycle;Signal;HPM_P1;HPM_P2
2022/04/23 00:01:34;;;;;;;9.98;6.85;;;;;;;;;;5072421;28;20043;-46
2022/04/23 00:04:00;;;;;;;7.05;6.55;;;;;;;;;;5073252;28;20044;-49
2022/04/23 00:06:25;;;;;;;6.65;6.15;;;;;;;;;;5072158;28;20074;-47
2022/04/23 00:08:50;;;;;;;6.13;5.63;;;;;;;;;;5072038;28;20039;-47
2022/04/23 00:11:16;;;;;;;6.57;6.00;;;;;;;;;;5072305;28;20420;-47
2022/04/23 00:13:41;;;;;;;5.88;5.38;;;;;;;;;;5070367;28;20115;-46
2022/04/23 00:16:07;;;;;;;7.18;6.57;;;;;;;;;;5071030;28;20043;-47
2022/04/23 00:18:32;;;;;;;6.53;6.03;;;;;;;;;;5070385;28;20077;-46
2022/04/23 00:20:58;;;;;;;5.78;5.32;;;;;;;;;;5070189;28;20806;-46
2022/04/23 00:23:24;;;;;;;5.32;4.82;;;;;;;;;;5074680;28;20444;-46
2022/04/23 00:25:52;;;;;;;6.78;6.20;;;;;;;;;;5074935;28;20044;-47
2022/04/23 00:28:18;;;;;;;5.07;4.68;;;;;;;;;;5074132;28;20485;-47
2022/04/23 00:30:47;;;;;;;6.70;5.60;;;;;;;;;;5076953;28;20028;-47
2022/04/23 00:33:12;;;;;;;6.22;5.63;;;;;;;;;;5072640;28;20032;-45
2022/04/23 00:35:38;;;;;;;6.72;6.13;;;;;;;;;;5076269;28;20047;-45
2022/04/23 00:38:05;;;;;;;6.57;6.03;;;;;;;;;;5074643;28;20028;-47
2022/04/23 00:40:31;;;;;;;5.90;5.13;;;;;;;;;;5075180;28;20033;-45
2022/04/23 00:42:58;;;;;;;6.32;5.80;;;;;;;;;;5076862;28;20359;-46
2022/04/23 00:45:27;;;;;;;6.38;5.88;;;;;;;;;;5075324;28;20035;-46
2022/04/23 00:47:53;;;;;;;6.13;5.63;;;;;;;;;;5075420;28;20357;-46
2022/04/23 00:50:21;;;;;;;5.25;4.85;;;;;;;;;;5075135;28;20513;-46
2022/04/23 00:53:04;;;;;;;5.93;5.45;;;;;;;;;;5074082;28;20029;-46
2022/04/23 00:55:32;;;;;;;7.13;6.45;;;;;;;;;;5075663;28;20055;-46
2022/04/23 00:57:59;;;;;;;6.38;5.88;;;;;;;;;;5074168;28;20040;-45
2022/04/23 01:00:25;;;;;;;6.80;6.07;;;;;;;;;;5075723;28;20107;-47
2022/04/23 01:02:54;;;;;;;7.05;6.45;;;;;;;;;;5075921;28;20115;-47
2022/04/23 01:05:23;;;;;;;5.95;5.50;;;;;;;;;;5078316;28;20043;-45
2022/04/23 01:07:50;;;;;;;6.10;5.60;;;;;;;;;;5077510;28;20035;-46
2022/04/23 01:10:15;;;;;;;5.75;5.30;;;;;;;;;;5081131;28;20024;-46
2022/04/23 01:12:42;;;;;;;7.13;6.53;;;;;;;;;;5076240;28;20373;-46
2022/04/23 01:15:09;;;;;;;6.15;5.60;;;;;;;;;;5070265;28;20047;-44
2022/04/23 01:17:36;;;;;;;6.80;6.20;;;;;;;;;;5074078;28;20040;-46
2022/04/23 01:20:05;;;;;;;6.60;6.05;;;;;;;;;;5073439;28;20096;-47
2022/04/23 01:22:32;;;;;;;8.35;7.55;;;;;;;;;;5074289;28;20123;-45
2022/04/23 01:24:58;;;;;;;8.13;6.10;;;;;;;;;;5074507;28;20028;-45
2022/04/23 01:27:25;;;;;;;8.02;6.82;;;;;;;;;;5073682;28;20362;-45
2022/04/23 01:29:51;;;;;;;6.78;6.25;;;;;;;;;;5073985;28;20042;-45
2022/04/23 01:32:16;;;;;;;7.25;6.63;;;;;;;;;;5074214;28;20033;-46
2022/04/23 01:34:42;;;;;;;5.25;4.85;;;;;;;;;;5072341;28;20081;-46
2022/04/23 01:37:08;;;;;;;8.38;6.45;;;;;;;;;;5073233;28;20032;-47
2022/04/23 01:39:34;;;;;;;5.40;5.00;;;;;;;;;;5076522;28;20515;-45
2022/04/23 01:41:59;;;;;;;6.68;6.07;;;;;;;;;;5080630;28;20461;-45
2022/04/23 01:44:25;;;;;;;6.85;6.25;;;;;;;;;;5072052;28;20036;-48
2022/04/23 01:46:50;;;;;;;6.63;6.03;;;;;;;;;;5072507;28;20040;-46
2022/04/23 01:49:16;;;;;;;6.63;6.03;;;;;;;;;;5075130;28;20036;-47
2022/04/23 01:51:41;;;;;;;6.70;6.10;;;;;;;;;;5072081;28;20016;-46
2022/04/23 01:54:07;;;;;;;7.10;6.50;;;;;;;;;;5073977;28;20047;-47
2022/04/23 01:56:32;;;;;;;7.10;6.45;;;;;;;;;;5074059;28;20036;-46
2022/04/23 01:58:58;;;;;;;6.22;5.72;;;;;;;;;;5074422;28;20040;-46
2022/04/23 02:01:23;;;;;;;6.30;5.80;;;;;;;;;;5075477;28;20036;-49
2022/04/23 02:03:51;;;;;;;7.32;6.72;;;;;;;;;;5070283;28;20575;-47
2022/04/23 02:06:17;;;;;;;6.57;6.07;;;;;;;;;;5071246;28;20385;-46
2022/04/23 02:08:42;;;;;;;6.13;5.63;;;;;;;;;;5076010;28;20082;-45
2022/04/23 02:11:08;;;;;;;6.85;6.25;;;;;;;;;;5076240;28;20092;-46
2022/04/23 02:13:34;;;;;;;7.65;6.90;;;;;;;;;;5074327;28;20484;-46
2022/04/23 02:16:00;;;;;;;7.47;6.78;;;;;;;;;;5074595;28;20024;-47
2022/04/23 02:18:26;;;;;;;6.07;5.60;;;;;;;;;;5074865;28;20127;-45
2022/04/23 02:20:52;;;;;;;6.68;6.05;;;;;;;;;;5075123;28;20036;-47
2022/04/23 02:23:18;;;;;;;6.43;5.93;;;;;;;;;;5074440;28;20096;-47
2022/04/23 02:25:43;;;;;;;7.07;6.57;;;;;;;;;;5069616;28;20104;-45
2022/04/23 02:28:09;;;;;;;6.50;6.00;;;;;;;;;;5074991;28;20027;-53
2022/04/23 02:30:34;;;;;;;7.38;6.78;;;;;;;;;;5074976;28;20060;-46
2022/04/23 02:33:00;;;;;;;8.70;6.93;;;;;;;;;;5077079;28;20028;-53
2022/04/23 02:35:26;;;;;;;7.28;6.68;;;;;;;;;;5077965;28;20033;-51
2022/04/23 02:38:01;;;;;;;7.28;6.60;;;;;;;;;;5078165;28;20037;-47
2022/04/23 02:40:28;;;;;;;8.05;7.35;;;;;;;;;;5074983;28;20044;-45
2022/04/23 02:42:55;;;;;;;5.85;5.35;;;;;;;;;;5078179;28;20044;-53
2022/04/23 02:45:21;;;;;;;6.07;5.57;;;;;;;;;;5073846;28;20207;-45
2022/04/23 02:47:53;;;;;;;7.93;7.22;;;;;;;;;;5072591;28;20115;-47
2022/04/23 02:50:26;;;;;;;7.75;7.15;;;;;;;;;;5071830;28;20058;-47
2022/04/23 02:52:53;;;;;;;7.70;7.07;;;;;;;;;;5073072;28;20028;-45
2022/04/23 02:55:19;;;;;;;7.68;7.07;;;;;;;;;;5076071;28;20548;-46
2022/04/23 02:57:44;;;;;;;8.00;7.20;;;;;;;;;;5071333;28;20048;-46
2022/04/23 03:00:11;;;;;;;7.40;6.80;;;;;;;;;;5072830;28;20028;-45
2022/04/23 03:02:38;;;;;;;8.18;7.47;;;;;;;;;;5072983;28;20027;-46
2022/04/23 03:05:08;;;;;;;8.20;7.28;;;;;;;;;;5074740;28;20078;-47
2022/04/23 03:07:35;;;;;;;8.00;7.40;;;;;;;;;;5072799;28;20071;-45
2022/04/23 03:10:03;;;;;;;7.03;6.43;;;;;;;;;;5070658;28;20287;-46
2022/04/23 03:12:28;;;;;;;6.88;6.35;;;;;;;;;;5073051;28;20024;-45
2022/04/23 03:14:53;;;;;;;7.60;6.82;;;;;;;;;;5073284;28;20120;-45
2022/04/23 03:17:19;;;;;;;9.25;8.45;;;;;;;;;;5072743;28;20347;-45
2022/04/23 03:19:46;;;;;;;7.35;6.75;;;;;;;;;;5074418;28;20016;-49
2022/04/23 03:22:13;;;;;;;7.35;6.85;;;;;;;;;;5076810;28;20529;-47
2022/04/23 03:24:39;;;;;;;6.75;6.15;;;;;;;;;;5070614;28;20127;-47
2022/04/23 03:27:06;;;;;;;6.72;6.20;;;;;;;;;;5075722;28;20135;-46
2022/04/23 03:29:31;;;;;;;6.93;6.32;;;;;;;;;;5077501;28;20037;-45
2022/04/23 03:31:57;;;;;;;6.60;6.00;;;;;;;;;;5075062;28;20028;-46
2022/04/23 03:34:22;;;;;;;6.82;6.30;;;;;;;;;;5073120;28;20020;-46
2022/04/23 03:36:48;;;;;;;7.38;6.72;;;;;;;;;;5075603;28;20048;-45
2022/04/23 03:39:14;;;;;;;6.50;5.97;;;;;;;;;;5075161;28;20036;-45
2022/04/23 03:41:39;;;;;;;8.00;7.30;;;;;;;;;;5073423;28;20086;-45
2022/04/23 03:44:05;;;;;;;6.38;5.88;;;;;;;;;;5072842;28;20039;-46
2022/04/23 03:46:30;;;;;;;6.88;6.38;;;;;;;;;;5076654;28;20045;-49
2022/04/23 03:48:56;;;;;;;7.15;6.55;;;;;;;;;;5075715;28;20028;-47
2022/04/23 03:51:21;;;;;;;8.50;7.88;;;;;;;;;;5074772;28;20052;-46
2022/04/23 03:53:47;;;;;;;7.03;6.53;;;;;;;;;;5073494;28;20075;-45
2022/04/23 03:56:12;;;;;;;7.35;6.85;;;;;;;;;;5074637;28;20089;-46
2022/04/23 03:58:38;;;;;;;7.07;6.47;;;;;;;;;;5075297;28;20089;-47
2022/04/23 04:01:04;;;;;;;7.03;6.43;;;;;;;;;;5079217;28;20033;-45
2022/04/23 04:03:30;;;;;;;7.35;6.75;;;;;;;;;;5079130;28;20108;-45
2022/04/23 04:05:55;;;;;;;9.80;7.88;;;;;;;;;;5076349;28;20043;-44
2022/04/23 04:08:21;;;;;;;7.82;7.22;;;;;;;;;;5079458;28;20031;-44
2022/04/23 04:10:46;;;;;;;8.60;7.90;;;;;;;;;;5078399;28;20509;-45
2022/04/23 04:13:14;;;;;;;6.50;6.00;;;;;;;;;;5077593;28;20038;-46
2022/04/23 04:15:41;;;;;;;8.68;8.05;;;;;;;;;;5077423;28;20027;-46
2022/04/23 04:18:06;;;;;;;7.85;7.25;;;;;;;;;;5078869;28;20032;-46
2022/04/23 04:20:32;;;;;;;6.78;6.25;;;;;;;;;;5080003;28;20579;-46
2022/04/23 04:22:58;;;;;;;8.68;7.85;;;;;;;;;;5078474;28;20040;-45
2022/04/23 04:25:23;;;;;;;8.43;7.75;;;;;;;;;;5078047;28;20037;-45
2022/04/23 04:27:49;;;;;;;8.90;7.90;;;;;;;;;;5076178;28;20060;-45
2022/04/23 04:30:14;;;;;;;8.77;8.10;;;;;;;;;;5078872;28;20039;-45
2022/04/23 04:32:41;;;;;;;9.07;8.30;;;;;;;;;;5077878;28;20040;-46
2022/04/23 04:35:10;;;;;;;8.75;8.10;;;;;;;;;;5073443;28;20033;-46
2022/04/23 04:37:36;;;;;;;9.13;8.43;;;;;;;;;;5074226;28;20078;-45
2022/04/23 04:40:03;;;;;;;8.60;7.90;;;;;;;;;;5092289;28;20419;-46
2022/04/23 04:42:28;;;;;;;8.70;7.85;;;;;;;;;;5075512;28;20090;-45
2022/04/23 04:44:53;;;;;;;8.80;8.10;;;;;;;;;;5075451;28;20786;-47
2022/04/23 04:47:19;;;;;;;8.35;7.75;;;;;;;;;;5077247;28;20040;-46
2022/04/23 04:49:44;;;;;;;7.35;6.75;;;;;;;;;;5075567;28;20032;-46
2022/04/23 04:52:10;;;;;;;8.13;7.53;;;;;;;;;;5075349;28;20020;-45
2022/04/23 04:54:35;;;;;;;8.57;7.88;;;;;;;;;;5075149;28;20034;-46
2022/04/23 04:57:02;;;;;;;7.97;7.28;;;;;;;;;;5078215;28;20043;-44
2022/04/23 04:59:31;;;;;;;7.43;6.85;;;;;;;;;;5076950;28;20044;-46
2022/04/23 05:01:57;;;;;;;7.70;6.95;;;;;;;;;;5078114;28;20508;-45
2022/04/23 05:04:22;;;;;;;7.60;7.00;;;;;;;;;;5076723;28;20131;-50
2022/04/23 05:06:48;;;;;;;5.85;5.35;;;;;;;;;;5077429;28;20038;-46
2022/04/23 05:09:14;;;;;;;7.15;6.55;;;;;;;;;;5078581;28;20040;-47
2022/04/23 05:11:39;;;;;;;6.10;5.68;;;;;;;;;;5076686;28;20163;-47
2022/04/23 05:14:05;;;;;;;6.60;6.10;;;;;;;;;;5076727;28;20472;-52
2022/04/23 05:16:30;;;;;;;5.95;5.45;;;;;;;;;;5074754;28;20032;-51
2022/04/23 05:18:56;;;;;;;5.95;5.45;;;;;;;;;;5078003;28;20097;-45
2022/04/23 05:21:21;;;;;;;5.97;5.47;;;;;;;;;;5076791;28;20021;-46
2022/04/23 05:23:46;;;;;;;6.40;5.88;;;;;;;;;;5076044;28;20024;-47
2022/04/23 05:26:12;;;;;;;6.00;5.50;;;;;;;;;;5075873;28;20062;-45
2022/04/23 05:28:39;;;;;;;7.70;6.28;;;;;;;;;;5076767;28;20040;-45
2022/04/23 05:31:05;;;;;;;7.75;7.05;;;;;;;;;;5076769;28;20077;-52
2022/04/23 05:33:30;;;;;;;6.75;6.07;;;;;;;;;;5077195;28;20032;-46
2022/04/23 05:35:55;;;;;;;6.25;5.70;;;;;;;;;;5076285;28;20028;-45
2022/04/23 05:38:22;;;;;;;6.90;6.30;;;;;;;;;;5075930;28;20043;-50
2022/04/23 05:40:48;;;;;;;6.88;6.32;;;;;;;;;;5083743;28;20025;-54
2022/04/23 05:43:14;;;;;;;6.43;5.88;;;;;;;;;;5073107;28;20134;-46
2022/04/23 05:45:40;;;;;;;6.30;5.80;;;;;;;;;;5077223;28;20028;-46
2022/04/23 05:48:06;;;;;;;6.53;5.97;;;;;;;;;;5075956;28;20039;-46
2022/04/23 05:50:31;;;;;;;5.40;5.00;;;;;;;;;;5079754;28;20028;-49
2022/04/23 05:52:56;;;;;;;6.38;5.88;;;;;;;;;;5075453;28;20024;-48
2022/04/23 05:55:22;;;;;;;5.80;5.30;;;;;;;;;;5076730;28;20041;-46
2022/04/23 05:57:47;;;;;;;4.97;4.57;;;;;;;;;;5079190;28;20647;-46
2022/04/23 06:00:14;;;;;;;6.28;5.68;;;;;;;;;;5077752;28;20043;-45
2022/04/23 06:02:40;;;;;;;6.63;6.13;;;;;;;;;;5075436;28;20058;-45
2022/04/23 06:05:06;;;;;;;5.18;4.75;;;;;;;;;;5077647;28;20039;-43
2022/04/23 06:07:32;;;;;;;5.18;4.78;;;;;;;;;;5078893;28;20032;-45
2022/04/23 06:09:58;;;;;;;6.53;6.03;;;;;;;;;;5076069;28;20036;-45
2022/04/23 06:12:23;;;;;;;6.47;5.97;;;;;;;;;;5073046;28;20036;-46
2022/04/23 06:14:51;;;;;;;6.57;6.07;;;;;;;;;;5071909;28;20043;-49
2022/04/23 06:17:25;;;;;;;5.63;5.22;;;;;;;;;;5074984;28;20093;-45
2022/04/23 06:19:52;;;;;;;7.30;6.72;;;;;;;;;;5076970;28;20048;-49
2022/04/23 06:22:18;;;;;;;5.53;5.13;;;;;;;;;;5076502;28;20060;-48
2022/04/23 06:24:43;;;;;;;6.53;6.00;;;;;;;;;;5077204;28;20066;-47
2022/04/23 06:27:09;;;;;;;5.80;5.30;;;;;;;;;;5075646;28;20543;-49
2022/04/23 06:29:36;;;;;;;6.43;5.93;;;;;;;;;;5077469;28;20184;-48
2022/04/23 06:32:02;;;;;;;5.50;5.10;;;;;;;;;;5075852;28;20462;-45
2022/04/23 06:34:27;;;;;;;6.18;5.68;;;;;;;;;;5075055;28;20032;-45
2022/04/23 06:36:53;;;;;;;5.38;4.88;;;;;;;;;;5076856;28;20044;-45
2022/04/23 06:39:18;;;;;;;5.63;4.93;;;;;;;;;;5075607;28;20040;-49
2022/04/23 06:41:43;;;;;;;5.30;4.90;;;;;;;;;;5075711;28;20036;-46
2022/04/23 06:44:09;;;;;;;6.63;5.70;;;;;;;;;;5072249;28;20024;-45
2022/04/23 06:46:34;;;;;;;5.20;4.80;;;;;;;;;;5077796;28;20024;-47
2022/04/23 06:49:05;;;;;;;5.25;4.85;;;;;;;;;;5075998;28;20028;-47
2022/04/23 06:51:31;;;;;;;4.88;4.47;;;;;;;;;;5075868;28;20497;-47
2022/04/23 06:53:56;;;;;;;5.32;4.93;;;;;;;;;;5070354;28;20484;-49
2022/04/23 06:56:21;;;;;;;6.20;5.70;;;;;;;;;;5071730;28;20103;-46
2022/04/23 06:58:48;;;;;;;6.10;5.60;;;;;;;;;;5074719;28;20028;-47
2022/04/23 07:01:15;;;;;;;5.85;5.35;;;;;;;;;;5076272;28;20028;-47
2022/04/23 07:03:40;;;;;;;5.03;4.63;;;;;;;;;;5071942;28;20507;-46
2022/04/23 07:06:05;;;;;;;6.15;5.65;;;;;;;;;;5075430;28;20055;-46
2022/04/23 07:08:31;;;;;;;4.97;4.57;;;;;;;;;;5077723;28;20031;-46
2022/04/23 07:10:56;;;;;;;5.65;5.15;;;;;;;;;;5072731;28;20068;-47
2022/04/23 07:13:21;;;;;;;5.35;4.95;;;;;;;;;;5072847;28;20040;-46
2022/04/23 07:15:47;;;;;;;5.45;5.05;;;;;;;;;;5070713;28;20120;-47
2022/04/23 07:18:12;;;;;;;5.97;5.53;;;;;;;;;;5075542;28;20115;-46
2022/04/23 07:20:41;;;;;;;6.22;5.82;;;;;;;;;;5076392;28;20024;-48
2022/04/23 07:25:51;;;;;;;6.15;5.65;;;;;;;;;;5069607;28;20029;-47
2022/04/23 07:28:18;;;;;;;6.38;5.88;;;;;;;;;;5071579;28;20033;-46
2022/04/23 07:30:44;;;;;;;6.63;6.13;;;;;;;;;;5073633;28;20551;-46
2022/04/23 07:37:28;;;;;;;6.07;5.63;;;;;;;;;;5071526;28;20038;-47
2022/04/23 07:38:39;;;;;;;5.30;4.90;;;;;;;;;;5074214;28;20060;-44
2022/04/23 07:41:05;;;;;;;7.28;6.78;;;;;;;;;;5076784;28;20082;-44
2022/04/23 07:43:31;;;;;;;7.95;7.43;;;;;;;;;;5075714;28;20094;-45
2022/04/23 07:45:56;;;;;;;7.32;6.82;;;;;;;;;;5072531;28;20036;-45
2022/04/23 07:48:22;;;;;;;5.65;5.25;;;;;;;;;;5073556;28;20035;-45
2022/04/23 07:50:47;;;;;;;7.30;6.80;;;;;;;;;;5074941;28;20036;-44
2022/04/23 07:53:13;;;;;;;9.73;9.02;;;;;;;;;;5074918;28;20454;-46
2022/04/23 07:55:39;;;;;;;8.40;7.90;;;;;;;;;;5073699;28;20097;-45
2022/04/23 07:58:05;;;;;;;8.05;7.45;;;;;;;;;;5076953;28;20520;-46
2022/04/23 08:00:36;;;;;;;8.40;7.80;;;;;;;;;;5077980;28;20466;-46
2022/04/23 08:03:03;;;;;;;10.60;9.93;;;;;;;;;;5075185;28;20029;-46
2022/04/23 08:05:29;;;;;;;9.70;9.10;;;;;;;;;;5074822;28;20922;-46
2022/04/23 08:07:54;;;;;;;14.82;14.02;;;;;;;;;;5074105;28;20028;-52
2022/04/23 08:10:20;;;;;;;18.15;17.10;;;;;;;;;;5072905;28;20051;-46
2022/04/23 08:12:46;;;;;;;19.90;18.80;;;;;;;;;;5071297;28;20093;-47
2022/04/23 08:15:12;;;;;;;16.65;15.73;;;;;;;;;;5069138;28;20036;-46
2022/04/23 08:17:38;;;;;;;16.20;15.30;;;;;;;;;;5068259;28;20032;-47
2022/04/23 08:20:03;;;;;;;16.50;15.57;;;;;;;;;;5070847;28;20131;-46
2022/04/23 08:22:29;;;;;;;16.25;15.35;;;;;;;;;;5073345;28;20582;-46
2022/04/23 08:24:55;;;;;;;20.42;19.33;;;;;;;;;;5076176;28;20047;-47
2022/04/23 08:27:21;;;;;;;19.42;18.33;;;;;;;;;;5072030;28;20044;-46
2022/04/23 08:32:30;;;;;;;20.48;19.38;;;;;;;;;;5069387;28;20024;-47
2022/04/23 08:34:55;;;;;;;21.83;20.63;;;;;;;;;;5067597;28;20711;-45
2022/04/23 08:37:22;;;;;;;21.13;19.98;;;;;;;;;;5070306;28;20048;-47
2022/04/23 08:39:47;;;;;;;20.05;18.95;;;;;;;;;;5070766;28;20039;-47
2022/04/23 08:42:16;;;;;;;13.63;12.82;;;;;;;;;;5069531;28;20031;-44
2022/04/23 08:44:42;;;;;;;10.95;10.30;;;;;;;;;;5071067;28;20031;-47
2022/04/23 08:47:09;;;;;;;19.55;18.45;;;;;;;;;;5074628;28;20036;-47
2022/04/23 08:49:40;;;;;;;12.85;12.05;;;;;;;;;;5075927;28;20035;-47
2022/04/23 08:52:15;;;;;;;11.23;10.50;;;;;;;;;;5083881;28;20020;-46
2022/04/23 08:54:41;;;;;;;16.73;15.73;;;;;;;;;;5071719;28;20024;-48
2022/04/23 08:57:06;;;;;;;15.48;14.55;;;;;;;;;;5076919;28;20024;-53
2022/04/23 08:59:31;;;;;;;13.43;12.63;;;;;;;;;;5077291;28;20125;-51
2022/04/23 09:01:57;;;;;;;12.73;11.93;;;;;;;;;;5077912;28;20032;-47
2022/04/23 09:04:22;;;;;;;12.82;12.02;;;;;;;;;;5074669;28;20036;-52
2022/04/23 09:06:48;;;;;;;8.75;8.15;;;;;;;;;;5077523;28;20033;-53
2022/04/23 09:09:19;;;;;;;7.20;6.70;;;;;;;;;;5075750;28;20032;-47
2022/04/23 09:11:50;;;;;;;11.15;10.45;;;;;;;;;;5074375;28;20044;-50
2022/04/23 09:14:33;;;;;;;9.75;9.15;;;;;;;;;;5072878;28;20066;-47
2022/04/23 09:25:35;;;;;;;7.40;6.90;;;;;;;;;;5072225;28;20044;-52
2022/04/23 09:28:16;;;;;;;8.13;7.60;;;;;;;;;;5074801;28;20109;-54
2022/04/23 09:30:42;;;;;;;9.65;9.05;;;;;;;;;;5078206;28;20037;-55
2022/04/23 09:33:08;;;;;;;8.98;8.38;;;;;;;;;;5075294;28;20110;-54
2022/04/23 09:35:33;;;;;;;8.70;8.10;;;;;;;;;;5074688;28;20063;-46
2022/04/23 09:38:16;;;;;;;7.70;7.20;;;;;;;;;;5075311;28;20105;-53
2022/04/23 09:40:49;;;;;;;7.63;7.13;;;;;;;;;;5075329;28;20119;-54
2022/04/23 09:43:15;;;;;;;8.48;7.88;;;;;;;;;;5077718;28;20037;-53
2022/04/23 09:45:43;;;;;;;8.10;7.53;;;;;;;;;;5076137;28;20028;-46
2022/04/23 09:48:11;;;;;;;7.50;7.00;;;;;;;;;;5075016;28;20071;-45
2022/04/23 09:50:38;;;;;;;7.97;7.47;;;;;;;;;;5074762;28;20032;-50
2022/04/23 09:53:10;;;;;;;7.63;7.13;;;;;;;;;;5077933;28;20474;-54
2022/04/23 09:55:37;;;;;;;7.57;7.07;;;;;;;;;;5073859;28;20098;-52
2022/04/23 09:58:09;;;;;;;11.23;10.52;;;;;;;;;;5073172;28;20027;-56
2022/04/23 10:00:41;;;;;;;11.45;10.63;;;;;;;;;;5070585;28;20129;-55
2022/04/23 10:03:08;;;;;;;13.25;12.38;;;;;;;;;;5072546;28;20029;-55
2022/04/23 10:05:41;;;;;;;14.57;13.77;;;;;;;;;;5069925;28;20085;-46
2022/04/23 10:08:17;;;;;;;17.80;16.80;;;;;;;;;;5077113;28;20064;-47
2022/04/23 10:10:53;;;;;;;13.85;13.05;;;;;;;;;;5074469;28;20671;-45
2022/04/23 10:13:21;;;;;;;15.98;15.05;;;;;;;;;;5056188;28;20035;-47
2022/04/23 10:15:47;;;;;;;15.50;14.60;;;;;;;;;;5071604;28;20098;-46
2022/04/23 10:18:14;;;;;;;16.40;15.48;;;;;;;;;;5073569;28;20386;-45
2022/04/23 10:20:40;;;;;;;21.55;20.40;;;;;;;;;;5070712;28;20036;-46
2022/04/23 10:23:26;;;;;;;19.65;18.45;;;;;;;;;;5073992;28;20020;-46
2022/04/23 10:26:23;;;;;;;15.68;14.73;;;;;;;;;;5073156;28;20415;-47
2022/04/23 10:28:50;;;;;;;17.10;16.10;;;;;;;;;;5071213;28;20511;-47
2022/04/23 10:31:17;;;;;;;15.25;14.35;;;;;;;;;;5069087;28;20033;-48
2022/04/23 10:33:49;;;;;;;19.17;18.05;;;;;;;;;;5070649;28;20043;-48
2022/04/23 10:36:16;;;;;;;17.73;16.73;;;;;;;;;;5069281;28;20127;-47
2022/04/23 10:38:44;;;;;;;17.00;16.00;;;;;;;;;;5066167;28;20048;-47
2022/04/23 10:41:11;;;;;;;17.27;16.27;;;;;;;;;;5069047;28;20028;-46
2022/04/23 10:43:47;;;;;;;18.50;17.50;;;;;;;;;;5067875;28;20028;-46
2022/04/23 10:46:37;;;;;;;14.25;13.15;;;;;;;;;;5072446;28;20055;-46
2022/04/23 10:49:21;;;;;;;16.88;15.88;;;;;;;;;;5073357;28;20106;-46
2022/04/23 10:51:57;;;;;;;15.95;14.98;;;;;;;;;;5075433;28;20503;-54
2022/04/23 10:54:45;;;;;;;14.80;13.88;;;;;;;;;;5076498;28;20106;-46
2022/04/23 10:57:15;;;;;;;14.43;13.50;;;;;;;;;;5078070;28;20486;-45
2022/04/23 10:59:44;;;;;;;15.43;14.32;;;;;;;;;;5077849;28;20036;-47
2022/04/23 11:02:32;;;;;;;16.30;15.40;;;;;;;;;;5077655;28;20028;-48
2022/04/23 11:13:36;;;;;;;12.32;11.60;;;;;;;;;;5061046;28;20048;-55
2022/04/23 11:16:06;;;;;;;11.00;10.30;;;;;;;;;;5072386;28;20104;-56
2022/04/23 11:18:33;;;;;;;12.32;11.55;;;;;;;;;;5073305;28;20085;-53
2022/04/23 11:21:09;;;;;;;9.95;9.25;;;;;;;;;;5061818;28;20020;-55
2022/04/23 11:23:37;;;;;;;8.85;8.25;;;;;;;;;;5069881;28;20059;-54
2022/04/23 11:26:03;;;;;;;8.85;8.23;;;;;;;;;;5073853;28;20110;-55
2022/04/23 11:28:29;;;;;;;11.38;10.57;;;;;;;;;;5073281;28;20116;-51
2022/04/23 11:30:57;;;;;;;8.35;7.78;;;;;;;;;;5073683;28;20043;-51
2022/04/23 11:33:22;;;;;;;10.15;9.52;;;;;;;;;;5073699;28;20104;-50
2022/04/23 11:35:48;;;;;;;7.35;6.85;;;;;;;;;;5075219;28;20139;-50
2022/04/23 11:38:22;;;;;;;9.98;9.25;;;;;;;;;;5072540;28;20035;-50
2022/04/23 11:40:47;;;;;;;8.98;8.38;;;;;;;;;;5073190;28;20039;-44
2022/04/23 11:43:28;;;;;;;9.05;8.45;;;;;;;;;;5066438;28;20028;-46
2022/04/23 11:45:57;;;;;;;8.43;7.72;;;;;;;;;;5073430;28;20028;-46
2022/04/23 11:48:23;;;;;;;8.15;7.60;;;;;;;;;;5072121;28;20155;-46
2022/04/23 11:50:49;;;;;;;10.00;9.20;;;;;;;;;;5072584;28;20032;-52
2022/04/23 11:53:14;;;;;;;8.93;8.30;;;;;;;;;;5073735;28;20074;-52
2022/04/23 11:55:39;;;;;;;7.80;7.30;;;;;;;;;;5074262;28;20076;-51
2022/04/23 11:58:05;;;;;;;8.05;7.25;;;;;;;;;;5076023;28;20036;-46
2022/04/23 12:00:32;;;;;;;9.38;8.68;;;;;;;;;;5074321;28;20433;-47
2022/04/23 12:02:59;;;;;;;8.15;7.55;;;;;;;;;;5075965;28;20043;-48
2022/04/23 12:05:29;;;;;;;9.20;8.57;;;;;;;;;;5073668;28;20033;-48
2022/04/23 12:07:55;;;;;;;8.23;7.63;;;;;;;;;;5075181;28;20099;-54
2022/04/23 12:10:28;;;;;;;8.57;7.68;;;;;;;;;;5072619;28;20047;-52
2022/04/23 12:12:56;;;;;;;7.60;7.00;;;;;;;;;;5071210;28;20052;-49
2022/04/23 12:15:22;;;;;;;7.35;6.75;;;;;;;;;;5072305;28;20048;-47
2022/04/23 12:17:51;;;;;;;9.07;8.38;;;;;;;;;;5074838;28;20062;-48
2022/04/23 12:20:19;;;;;;;8.45;7.85;;;;;;;;;;5077976;28;20068;-46
2022/04/23 12:23:05;;;;;;;8.63;8.02;;;;;;;;;;5070740;28;20036;-46
2022/04/23 12:25:35;;;;;;;8.98;8.32;;;;;;;;;;5076170;28;20500;-55
2022/04/23 12:28:02;;;;;;;8.07;7.47;;;;;;;;;;5073405;28;20033;-54
2022/04/23 12:42:00;;;;;;;11.02;10.13;;;;;;;;;;5074711;28;20039;-56
2022/04/23 12:44:32;;;;;;;8.50;7.88;;;;;;;;;;5077184;28;20036;-56
2022/04/23 12:47:09;;;;;;;10.20;9.27;;;;;;;;;;5057101;28;20040;-47
2022/04/23 12:49:48;;;;;;;9.10;8.40;;;;;;;;;;5076000;28;20024;-49
2022/04/23 12:52:36;;;;;;;8.23;7.63;;;;;;;;;;5077862;28;20035;-55
2022/04/23 12:55:21;;;;;;;11.23;10.43;;;;;;;;;;5075350;28;20040;-46
2022/04/23 12:57:52;;;;;;;11.90;11.00;;;;;;;;;;5075127;28;20134;-46
2022/04/23 13:00:22;;;;;;;10.82;10.13;;;;;;;;;;5076455;28;20047;-50
2022/04/23 13:02:53;;;;;;;13.32;12.05;;;;;;;;;;5076246;28;20465;-45
2022/04/23 13:05:19;;;;;;;13.63;12.75;;;;;;;;;;5076034;28;20042;-45
2022/04/23 13:10:28;;;;;;;16.63;15.48;;;;;;;;;;5073008;28;20032;-46
2022/04/23 13:12:54;;;;;;;16.48;15.48;;;;;;;;;;5075596;28;20024;-45
2022/04/23 13:15:20;;;;;;;15.90;14.90;;;;;;;;;;5074104;28;20044;-47
2022/04/23 13:17:47;;;;;;;16.23;15.23;;;;;;;;;;5080176;28;20034;-47
2022/04/23 13:20:14;;;;;;;16.65;15.65;;;;;;;;;;5075928;28;20147;-57
2022/04/23 13:22:43;;;;;;;16.23;15.23;;;;;;;;;;5078143;28;20051;-56
2022/04/23 13:25:11;;;;;;;19.50;18.30;;;;;;;;;;5079665;28;20083;-56
2022/04/23 13:27:37;;;;;;;16.35;15.10;;;;;;;;;;5073518;28;20512;-57
2022/04/23 13:30:04;;;;;;;18.67;17.58;;;;;;;;;;5076237;28;20025;-47
2022/04/23 13:32:31;;;;;;;18.60;17.50;;;;;;;;;;5075357;28;20744;-46
2022/04/23 13:34:56;;;;;;;17.15;16.13;;;;;;;;;;5070312;28;20449;-46
2022/04/23 13:37:22;;;;;;;18.60;17.52;;;;;;;;;;5071026;28;20040;-56
2022/04/23 13:39:47;;;;;;;14.60;13.63;;;;;;;;;;5075524;28;20064;-56
2022/04/23 13:42:14;;;;;;;17.30;16.30;;;;;;;;;;5066786;28;20033;-57
2022/04/23 13:44:41;;;;;;;14.88;13.77;;;;;;;;;;5070381;28;20024;-56
2022/04/23 13:47:06;;;;;;;16.30;15.30;;;;;;;;;;5073227;28;20028;-53
2022/04/23 13:49:32;;;;;;;14.32;13.40;;;;;;;;;;5072808;28;20033;-45
2022/04/23 13:51:57;;;;;;;12.93;12.02;;;;;;;;;;5071062;28;20070;-45
2022/04/23 13:54:23;;;;;;;13.27;12.38;;;;;;;;;;5076460;28;20477;-47
2022/04/23 13:56:49;;;;;;;13.23;12.32;;;;;;;;;;5076343;28;20115;-55
2022/04/23 13:59:17;;;;;;;13.20;12.40;;;;;;;;;;5074437;28;20035;-54
2022/04/23 14:10:04;;;;;;;10.80;10.00;;;;;;;;;;5075982;28;20621;-45
2022/04/23 14:10:05;;;;;;;8.02;7.45;;;;;;;;;;5078116;28;20039;-56
2022/04/23 14:12:31;;;;;;;8.98;8.38;;;;;;;;;;5077712;28;20113;-46
2022/04/23 14:14:56;;;;;;;10.88;10.07;;;;;;;;;;5072175;28;20040;-46
2022/04/23 14:17:22;;;;;;;11.98;11.18;;;;;;;;;;5073261;28;20036;-45
2022/04/23 14:19:47;;;;;;;9.35;8.65;;;;;;;;;;5074156;28;20035;-45
2022/04/23 14:22:13;;;;;;;8.93;8.18;;;;;;;;;;5071352;28;20702;-47
2022/04/23 14:24:38;;;;;;;11.43;10.63;;;;;;;;;;5073077;28;20068;-45
2022/04/23 14:27:04;;;;;;;9.45;8.75;;;;;;;;;;5075198;28;20028;-47
2022/04/23 14:29:30;;;;;;;12.77;11.82;;;;;;;;;;5075948;28;20036;-45
2022/04/23 14:31:56;;;;;;;10.25;9.55;;;;;;;;;;5074428;28;20089;-46
2022/04/23 14:34:21;;;;;;;11.98;11.15;;;;;;;;;;5075813;28;20036;-45
2022/04/23 14:36:46;;;;;;;12.43;11.43;;;;;;;;;;5076794;28;20028;-46
2022/04/23 14:39:12;;;;;;;15.13;14.13;;;;;;;;;;5074474;28;20059;-46
2022/04/23 14:41:37;;;;;;;12.20;11.35;;;;;;;;;;5072408;28;20024;-46
2022/04/23 14:44:03;;;;;;;12.82;12.02;;;;;;;;;;5070446;28;20036;-45
2022/04/23 14:46:28;;;;;;;13.07;12.07;;;;;;;;;;5070946;28;20032;-47
2022/04/23 14:48:54;;;;;;;16.20;12.95;;;;;;;;;;5069949;28;20043;-45
2022/04/23 14:54:03;;;;;;;11.45;10.70;;;;;;;;;;5071858;28;20031;-47
2022/04/23 14:56:28;;;;;;;14.35;13.35;;;;;;;;;;5071812;28;20133;-47
2022/04/23 14:58:54;;;;;;;11.68;10.80;;;;;;;;;;5069997;28;20028;-44
2022/04/23 15:01:20;;;;;;;15.45;14.23;;;;;;;;;;5069529;28;20067;-47
2022/04/23 15:03:47;;;;;;;14.85;13.85;;;;;;;;;;5070480;28;20503;-46
2022/04/23 15:06:13;;;;;;;14.43;13.43;;;;;;;;;;5068889;28;20109;-45
2022/04/23 15:08:39;;;;;;;15.45;14.15;;;;;;;;;;5072505;28;20044;-45
2022/04/23 15:11:07;;;;;;;15.85;14.75;;;;;;;;;;5074567;28;20044;-47
2022/04/23 15:13:34;;;;;;;12.95;11.95;;;;;;;;;;5077931;28;20050;-45
2022/04/23 15:16:01;;;;;;;14.43;13.30;;;;;;;;;;5072535;28;20051;-46
2022/04/23 15:18:26;;;;;;;15.50;14.50;;;;;;;;;;5069939;28;20046;-47
2022/04/23 15:20:52;;;;;;;14.00;13.10;;;;;;;;;;5070807;28;20119;-46
2022/04/23 15:23:17;;;;;;;14.40;13.50;;;;;;;;;;5071880;28;20177;-45
2022/04/23 15:25:43;;;;;;;16.40;15.25;;;;;;;;;;5073332;28;20033;-47